Time;durP1;ratioP1;P1;durP2;ratioP2;P2;SDS_P1;SDS_P2;PMS_P1;PMS_P2;Temp;Humidity;BMP_temperature;BMP_pressure;BME280_temperature;BME280_humidity;BME280_pressure;Samples;Min_cycle;Max_cycle;Signal;HPM_P1;HPM_P2
2023/06/29 00:00:29;;;;;;;3.45;1.70;;;;;;;20.87;47.58;99573.47;4364923;32;33768;-60
2023/06/29 00:02:57;;;;;;;1.95;1.10;;;;;;;20.88;47.43;99579.72;4348782;32;33707;-60
2023/06/29 00:05:25;;;;;;;3.95;1.98;;;;;;;20.84;47.60;99573.81;4354001;32;35022;-61
2023/06/29 00:07:53;;;;;;;2.62;1.60;;;;;;;20.87;47.40;99564.44;4351643;32;34032;-60
2023/06/29 00:10:21;;;;;;;2.95;1.33;;;;;;;20.84;47.42;99572.97;4352840;32;33658;-60
2023/06/29 00:12:49;;;;;;;4.15;1.67;;;;;;;20.82;47.38;99573.16;4338527;32;34651;-61
2023/06/29 00:15:16;;;;;;;7.28;1.65;;;;;;;20.81;47.64;99576.06;4346577;32;35543;-61
2023/06/29 00:17:47;;;;;;;2.67;1.52;;;;;;;20.80;47.41;99580.66;4355362;32;33951;-60
2023/06/29 00:20:14;;;;;;;2.78;1.48;;;;;;;20.81;47.53;99579.63;4346017;32;34313;-61
2023/06/29 00:22:47;;;;;;;3.15;1.90;;;;;;;20.81;47.54;99576.91;4353005;32;34216;-60
2023/06/29 00:25:16;;;;;;;4.40;1.70;;;;;;;20.69;48.11;99571.06;4348826;32;34980;-61
2023/06/29 00:27:44;;;;;;;3.87;2.33;;;;;;;20.80;47.70;99579.78;4344792;32;35065;-61
2023/06/29 00:30:13;;;;;;;2.95;1.58;;;;;;;20.78;47.75;99576.44;4346854;32;33450;-60
2023/06/29 00:32:40;;;;;;;1.98;1.37;;;;;;;20.74;47.80;99577.81;4344778;32;33607;-60
2023/06/29 00:35:12;;;;;;;2.65;1.25;;;;;;;20.77;47.59;99575.59;4346548;32;33790;-60
2023/06/29 00:37:42;;;;;;;3.45;1.77;;;;;;;20.67;47.92;99575.00;4351419;32;35236;-61
2023/06/29 00:40:10;;;;;;;1.90;1.20;;;;;;;20.68;47.79;99573.97;4348857;32;34001;-61
2023/06/29 00:42:38;;;;;;;2.67;1.50;;;;;;;20.62;48.12;99572.84;4355259;32;33857;-61
2023/06/29 00:45:06;;;;;;;3.60;1.58;;;;;;;20.66;48.20;99576.03;4354853;32;33734;-60
2023/06/29 00:47:36;;;;;;;2.47;1.45;;;;;;;20.61;48.30;99568.44;4356123;32;35191;-60
2023/06/29 00:50:05;;;;;;;1.52;1.05;;;;;;;20.59;48.35;99566.91;4347403;32;33308;-60
2023/06/29 00:52:33;;;;;;;6.65;1.98;;;;;;;20.59;48.21;99573.19;4356880;32;33757;-61
2023/06/29 00:55:00;;;;;;;5.85;1.52;;;;;;;20.59;48.43;99566.91;4343036;32;34042;-61
2023/06/29 00:57:29;;;;;;;4.53;1.73;;;;;;;20.59;48.49;99558.75;4338650;32;34218;-60
2023/06/29 01:00:00;;;;;;;2.70;1.40;;;;;;;20.44;48.96;99562.25;4351359;32;34790;-61
2023/06/29 01:02:31;;;;;;;4.57;1.75;;;;;;;20.52;48.57;99561.38;4359897;32;34941;-61
2023/06/29 01:05:04;;;;;;;5.65;2.03;;;;;;;20.50;48.53;99560.66;4355073;32;34101;-61
2023/06/29 01:07:37;;;;;;;3.33;1.67;;;;;;;20.51;48.47;99559.66;4362529;32;33997;-67
2023/06/29 01:10:08;;;;;;;3.40;1.35;;;;;;;20.53;48.40;99563.06;4347413;32;33775;-61
2023/06/29 01:12:36;;;;;;;2.00;1.20;;;;;;;20.54;48.37;99558.47;4349438;32;34630;-60
2023/06/29 01:15:05;;;;;;;4.57;1.83;;;;;;;20.45;48.61;99552.25;4364360;32;35439;-60
2023/06/29 01:17:36;;;;;;;3.45;1.52;;;;;;;20.39;48.79;99561.97;4355380;32;33799;-66
2023/06/29 01:20:09;;;;;;;2.65;1.55;;;;;;;20.30;48.98;99551.34;4356209;32;34254;-60
2023/06/29 01:22:43;;;;;;;3.87;1.67;;;;;;;20.27;49.27;99554.41;4358958;32;34353;-60
2023/06/29 01:25:11;;;;;;;2.70;1.15;;;;;;;20.17;49.52;99546.50;4348738;32;33749;-60
2023/06/29 01:27:43;;;;;;;4.10;1.58;;;;;;;20.23;49.37;99557.50;4359315;32;35394;-60
2023/06/29 01:30:11;;;;;;;2.55;1.25;;;;;;;20.28;49.27;99550.66;4363543;32;33788;-59
2023/06/29 01:32:39;;;;;;;8.15;2.40;;;;;;;20.29;49.51;99552.34;4362101;32;33730;-59
2023/06/29 01:35:07;;;;;;;3.08;1.55;;;;;;;20.34;49.39;99556.22;4371400;32;33941;-60
2023/06/29 01:38:07;;;;;;;3.72;1.83;;;;;;;20.33;49.46;99549.09;4348047;32;33916;-60
2023/06/29 01:40:36;;;;;;;7.22;1.85;;;;;;;20.42;49.23;99555.31;4286647;33;33360;-60
2023/06/29 01:43:04;;;;;;;5.22;2.30;;;;;;;20.41;49.37;99554.44;4273492;33;33690;-60
2023/06/29 01:45:33;;;;;;;3.50;1.80;;;;;;;20.51;49.14;99556.06;4273320;33;34020;-60
2023/06/29 01:48:01;;;;;;;5.20;1.67;;;;;;;20.54;49.03;99555.75;4274216;33;33937;-60
2023/06/29 01:50:29;;;;;;;8.13;2.25;;;;;;;20.51;49.05;99551.50;4281286;33;34763;-60
2023/06/29 01:52:56;;;;;;;2.78;1.85;;;;;;;20.50;49.10;99555.22;4291083;33;33424;-60
2023/06/29 01:55:24;;;;;;;3.80;1.75;;;;;;;20.53;48.99;99552.19;4294026;33;34643;-59
2023/06/29 01:57:52;;;;;;;4.40;2.42;;;;;;;20.49;49.05;99539.97;4282036;33;33494;-59
2023/06/29 02:00:20;;;;;;;3.10;1.80;;;;;;;20.46;49.23;99551.19;4282405;33;33367;-60
2023/06/29 02:02:51;;;;;;;2.45;1.33;;;;;;;20.44;49.30;99550.53;4288945;33;33808;-60
2023/06/29 02:05:19;;;;;;;6.80;2.33;;;;;;;20.30;49.57;99540.47;4300971;33;34972;-60
2023/06/29 02:07:46;;;;;;;3.03;1.58;;;;;;;20.44;49.16;99543.22;4300112;33;35219;-60
2023/06/29 02:10:14;;;;;;;3.47;2.25;;;;;;;20.46;49.23;99543.03;4296301;33;34291;-60
2023/06/29 02:12:42;;;;;;;5.93;2.15;;;;;;;20.45;49.30;99546.81;4300252;33;33797;-60
2023/06/29 02:15:10;;;;;;;11.27;1.92;;;;;;;20.43;49.27;99540.69;4298824;33;34155;-60
2023/06/29 02:17:37;;;;;;;4.03;1.92;;;;;;;20.42;49.29;99539.84;4343271;32;34186;-60
2023/06/29 02:20:10;;;;;;;5.37;2.35;;;;;;;20.44;49.29;99545.09;4352065;32;33589;-60
2023/06/29 02:22:37;;;;;;;3.17;1.73;;;;;;;20.52;49.12;99546.94;4358251;32;33499;-60
2023/06/29 02:25:07;;;;;;;7.85;2.05;;;;;;;20.56;49.30;99551.81;4359137;32;33708;-60
2023/06/29 02:27:37;;;;;;;3.62;1.92;;;;;;;20.30;49.77;99543.19;4353759;32;33775;-60
2023/06/29 02:30:06;;;;;;;4.82;1.83;;;;;;;19.94;50.78;99541.06;4359343;32;33398;-60
2023/06/29 02:32:34;;;;;;;2.60;1.62;;;;;;;20.18;49.70;99542.75;4357741;32;32207;-60
2023/06/29 02:35:02;;;;;;;5.45;2.72;;;;;;;20.46;49.08;99537.59;4358476;32;35189;-60
2023/06/29 02:37:30;;;;;;;4.22;1.95;;;;;;;20.41;49.31;99542.72;4357428;32;33529;-59
2023/06/29 02:39:58;;;;;;;3.15;1.77;;;;;;;20.37;49.37;99533.25;4359265;32;33571;-60
2023/06/29 02:42:26;;;;;;;3.42;2.15;;;;;;;20.48;49.16;99543.69;4359438;32;34046;-60
2023/06/29 02:44:53;;;;;;;3.60;1.90;;;;;;;20.49;49.24;99545.41;4358759;32;34274;-60
2023/06/29 02:47:21;;;;;;;12.57;2.12;;;;;;;20.45;49.52;99544.91;4357780;32;34465;-60
2023/06/29 02:49:49;;;;;;;3.65;1.90;;;;;;;20.51;49.42;99546.06;4360733;32;33919;-60
2023/06/29 02:52:17;;;;;;;3.10;1.27;;;;;;;20.29;49.77;99545.06;4357085;32;34744;-60
2023/06/29 02:54:44;;;;;;;3.95;1.75;;;;;;;20.19;49.88;99553.47;4357193;32;33986;-60
2023/06/29 02:57:16;;;;;;;1.55;1.30;;;;;;;20.31;49.45;99547.59;4360726;32;33954;-60
2023/06/29 02:59:44;;;;;;;3.00;1.73;;;;;;;20.14;49.73;99552.31;4359836;32;33159;-60
2023/06/29 03:02:12;;;;;;;3.65;1.70;;;;;;;20.36;49.04;99550.63;4363984;32;35256;-60
2023/06/29 03:04:40;;;;;;;3.62;2.25;;;;;;;20.39;48.96;99561.13;4375756;32;33808;-60
2023/06/29 03:07:08;;;;;;;1.30;0.88;;;;;;;20.26;48.94;99556.28;4374805;32;33958;-60
2023/06/29 03:09:36;;;;;;;2.67;1.37;;;;;;;20.11;49.21;99561.66;4374396;32;34667;-60
2023/06/29 03:12:04;;;;;;;3.03;1.75;;;;;;;20.32;48.84;99555.56;4371962;32;36064;-60
2023/06/29 03:14:31;;;;;;;4.53;1.95;;;;;;;20.27;48.88;99560.69;4373440;32;33739;-60
2023/06/29 03:16:59;;;;;;;2.62;1.50;;;;;;;20.23;48.91;99556.66;4374356;32;34121;-60
2023/06/29 03:19:26;;;;;;;5.00;1.77;;;;;;;20.20;48.96;99567.88;4375220;32;33564;-60
2023/06/29 03:21:54;;;;;;;2.87;1.52;;;;;;;20.32;48.79;99557.41;4372886;32;33912;-60
2023/06/29 03:24:22;;;;;;;5.70;1.50;;;;;;;20.41;48.54;99553.59;4374763;32;34166;-60
2023/06/29 03:26:49;;;;;;;2.53;1.80;;;;;;;20.55;48.33;99560.16;4374743;32;33838;-60
2023/06/29 03:29:20;;;;;;;2.80;1.48;;;;;;;20.61;48.01;99556.69;4374099;32;33739;-60
2023/06/29 03:31:47;;;;;;;1.75;1.23;;;;;;;20.55;48.23;99560.16;4371472;32;34033;-60
2023/06/29 03:34:15;;;;;;;3.90;1.48;;;;;;;20.55;48.27;99557.44;4374661;32;35648;-60
2023/06/29 03:36:43;;;;;;;3.15;1.60;;;;;;;20.45;48.52;99563.12;4372348;32;34755;-60
2023/06/29 03:39:10;;;;;;;3.03;1.55;;;;;;;20.53;48.48;99565.78;4373851;32;35237;-60
2023/06/29 03:41:37;;;;;;;3.70;1.60;;;;;;;20.52;48.32;99560.53;4371764;32;33453;-60
2023/06/29 03:44:05;;;;;;;2.15;1.48;;;;;;;20.74;47.93;99558.78;4375440;32;33806;-59
2023/06/29 03:46:33;;;;;;;15.43;2.87;;;;;;;20.67;47.90;99561.41;4372363;32;33854;-59
2023/06/29 03:49:00;;;;;;;12.85;1.80;;;;;;;20.67;48.03;99554.09;4365119;32;33267;-59
2023/06/29 03:51:28;;;;;;;2.28;1.30;;;;;;;20.86;47.64;99557.31;4374757;32;35325;-59
2023/06/29 03:53:55;;;;;;;2.58;1.45;;;;;;;21.03;47.26;99553.41;4373392;32;34696;-59
2023/06/29 03:56:23;;;;;;;2.90;1.92;;;;;;;21.01;47.28;99550.00;4375048;32;34068;-59
2023/06/29 03:58:52;;;;;;;2.47;1.50;;;;;;;21.10;47.11;99553.50;4369414;32;33432;-59
2023/06/29 04:01:19;;;;;;;2.72;1.48;;;;;;;21.03;47.12;99558.84;4370142;32;33840;-60
2023/06/29 04:03:47;;;;;;;6.40;1.92;;;;;;;21.15;46.63;99556.47;4351604;32;34251;-64
2023/06/29 04:06:14;;;;;;;5.55;2.12;;;;;;;21.16;46.50;99564.47;4367692;32;33800;-60
2023/06/29 04:08:42;;;;;;;2.53;1.52;;;;;;;21.32;46.15;99566.16;4370487;32;34907;-59
2023/06/29 04:11:11;;;;;;;1.80;1.17;;;;;;;21.33;45.77;99564.28;4354031;32;34754;-59
2023/06/29 04:13:39;;;;;;;2.20;1.48;;;;;;;21.25;45.86;99561.63;4358823;32;33796;-59
2023/06/29 04:16:06;;;;;;;6.60;1.65;;;;;;;21.16;45.57;99569.06;4351626;32;33755;-59
2023/06/29 04:18:35;;;;;;;4.43;1.45;;;;;;;21.00;45.62;99561.94;4363237;32;33350;-59
2023/06/29 04:21:02;;;;;;;3.40;1.70;;;;;;;21.13;45.62;99561.28;4362552;32;35141;-59
2023/06/29 04:23:30;;;;;;;2.85;1.67;;;;;;;21.07;45.84;99556.59;4365094;32;33836;-59
2023/06/29 04:26:02;;;;;;;4.15;2.03;;;;;;;21.33;45.04;99558.84;4362409;32;32636;-59
2023/06/29 04:28:33;;;;;;;4.22;2.03;;;;;;;21.18;45.47;99554.22;4361598;32;34441;-59
2023/06/29 04:31:01;;;;;;;3.35;1.27;;;;;;;20.92;46.04;99546.53;4375662;32;33903;-59
2023/06/29 04:33:29;;;;;;;2.55;1.25;;;;;;;21.36;45.52;99544.88;4367510;32;34307;-59
2023/06/29 04:35:57;;;;;;;3.35;1.60;;;;;;;21.37;44.81;99552.00;4352346;32;34953;-59
2023/06/29 04:38:27;;;;;;;3.42;1.65;;;;;;;21.32;45.50;99555.28;4363891;32;33336;-59
2023/06/29 04:41:03;;;;;;;2.60;1.42;;;;;;;21.40;45.13;99549.75;4369154;32;33508;-60
2023/06/29 04:43:31;;;;;;;5.50;1.25;;;;;;;21.16;45.75;99559.03;4349026;32;35420;-60
2023/06/29 04:46:00;;;;;;;3.42;1.75;;;;;;;21.12;45.93;99559.56;4358967;32;34220;-60
2023/06/29 04:48:37;;;;;;;2.75;1.40;;;;;;;21.43;45.00;99553.13;4358528;32;33685;-60
2023/06/29 04:51:05;;;;;;;5.78;1.83;;;;;;;21.37;45.39;99554.72;4357811;32;34092;-60
2023/06/29 04:53:34;;;;;;;3.40;1.90;;;;;;;21.58;44.71;99557.53;4360062;32;34013;-60
2023/06/29 04:56:02;;;;;;;6.07;1.75;;;;;;;21.83;43.57;99554.47;4358324;32;34760;-60
2023/06/29 04:58:30;;;;;;;3.22;1.77;;;;;;;21.99;42.92;99559.69;4356666;32;34726;-60
2023/06/29 05:00:57;;;;;;;7.93;2.30;;;;;;;21.76;43.11;99556.25;4350050;32;33784;-60
2023/06/29 05:03:26;;;;;;;4.10;2.05;;;;;;;21.63;44.03;99565.94;4366972;32;33756;-60
2023/06/29 05:05:54;;;;;;;4.68;1.48;;;;;;;21.06;44.87;99569.34;4362911;32;34051;-60
2023/06/29 05:08:21;;;;;;;7.05;1.98;;;;;;;21.53;44.44;99564.56;4364226;32;33358;-60
2023/06/29 05:10:50;;;;;;;3.03;1.73;;;;;;;21.38;44.75;99556.44;4364853;32;33615;-60
2023/06/29 05:13:17;;;;;;;2.65;1.65;;;;;;;21.94;43.75;99551.22;4365905;32;34225;-60
2023/06/29 05:15:47;;;;;;;9.65;1.80;;;;;;;21.52;44.48;99557.44;4358569;32;34284;-60
2023/06/29 05:18:16;;;;;;;3.25;1.90;;;;;;;21.25;45.59;99558.91;4363394;32;34640;-60
2023/06/29 05:20:43;;;;;;;3.50;1.80;;;;;;;21.38;45.72;99551.81;4361084;32;35013;-60
2023/06/29 05:23:11;;;;;;;5.75;1.83;;;;;;;21.09;46.34;99551.78;4373345;32;34880;-60
2023/06/29 05:25:40;;;;;;;4.32;1.65;;;;;;;21.48;45.56;99547.97;4363283;32;32508;-60
2023/06/29 05:28:09;;;;;;;5.10;2.12;;;;;;;21.71;44.84;99558.72;4365892;32;34376;-60
2023/06/29 05:30:36;;;;;;;3.90;2.15;;;;;;;21.02;46.77;99556.28;4365101;32;33631;-60
2023/06/29 05:33:04;;;;;;;3.05;1.52;;;;;;;21.38;46.02;99556.44;4366228;32;34073;-60
2023/06/29 05:35:34;;;;;;;5.28;2.40;;;;;;;20.96;47.13;99552.44;4367859;32;33925;-60
2023/06/29 05:38:02;;;;;;;4.95;2.12;;;;;;;21.32;46.75;99554.44;4369329;32;33818;-60
2023/06/29 05:40:29;;;;;;;3.28;1.70;;;;;;;21.53;45.95;99559.97;4367745;32;34811;-60
2023/06/29 05:42:57;;;;;;;6.28;2.75;;;;;;;21.53;46.21;99570.84;4359384;32;35114;-60
2023/06/29 05:45:25;;;;;;;2.40;1.65;;;;;;;22.08;45.47;99566.66;4363244;32;33689;-60
2023/06/29 05:47:54;;;;;;;6.60;1.80;;;;;;;21.95;45.97;99568.41;4358027;32;33212;-60
2023/06/29 05:50:22;;;;;;;6.12;1.98;;;;;;;21.57;46.59;99564.00;4369039;32;33488;-60
2023/06/29 05:52:50;;;;;;;5.35;1.77;;;;;;;21.09;47.57;99563.53;4368949;32;34100;-60
2023/06/29 05:55:19;;;;;;;3.75;1.90;;;;;;;21.68;46.61;99570.84;4368867;32;34928;-60
2023/06/29 05:57:47;;;;;;;2.97;1.85;;;;;;;21.08;47.77;99563.72;4355032;32;33903;-60
2023/06/29 06:00:15;;;;;;;6.68;2.22;;;;;;;21.84;46.14;99561.59;4360471;32;33380;-60
2023/06/29 06:02:43;;;;;;;3.10;1.80;;;;;;;21.37;47.36;99560.16;4363368;32;33931;-60
2023/06/29 06:05:10;;;;;;;5.55;2.33;;;;;;;21.34;47.12;99565.94;4346513;32;34764;-60
2023/06/29 06:07:38;;;;;;;2.35;1.55;;;;;;;21.57;45.89;99563.16;4352622;32;33830;-60
2023/06/29 06:10:06;;;;;;;4.40;2.15;;;;;;;21.99;45.70;99562.41;4356544;32;33834;-60
2023/06/29 06:12:33;;;;;;;9.50;2.53;;;;;;;21.94;45.49;99559.41;4348008;32;35198;-60
2023/06/29 06:15:01;;;;;;;2.50;1.30;;;;;;;22.00;46.02;99558.63;4359559;32;33931;-60
2023/06/29 06:17:29;;;;;;;4.07;2.00;;;;;;;22.07;45.79;99553.25;4350073;32;33448;-60
2023/06/29 06:19:56;;;;;;;6.45;2.33;;;;;;;21.67;45.51;99552.81;4352221;32;33999;-60
2023/06/29 06:22:24;;;;;;;6.25;2.42;;;;;;;21.59;46.36;99556.47;4350385;32;34038;-60
2023/06/29 06:24:52;;;;;;;4.03;1.60;;;;;;;22.03;46.36;99562.88;4350380;32;34365;-61
2023/06/29 06:27:19;;;;;;;8.32;1.85;;;;;;;22.64;45.07;99552.34;4356568;32;33824;-61
2023/06/29 06:29:47;;;;;;;3.92;1.92;;;;;;;22.63;45.44;99558.00;4356817;32;33700;-61
2023/06/29 06:32:14;;;;;;;3.80;1.80;;;;;;;22.64;44.66;99555.09;4354040;32;34750;-60
2023/06/29 06:34:43;;;;;;;3.72;1.67;;;;;;;22.58;45.19;99555.03;4337993;32;35368;-61
2023/06/29 06:37:11;;;;;;;5.72;2.00;;;;;;;22.29;45.55;99554.13;4353307;32;33305;-60
2023/06/29 06:39:39;;;;;;;4.72;1.77;;;;;;;22.14;46.01;99556.03;4352659;32;34991;-61
2023/06/29 06:42:07;;;;;;;3.15;1.98;;;;;;;21.89;45.95;99552.84;4352871;32;34198;-61
2023/06/29 06:44:49;;;;;;;4.35;1.90;;;;;;;22.58;44.89;99553.13;4337975;32;34221;-61
2023/06/29 06:47:17;;;;;;;10.85;2.20;;;;;;;22.60;45.52;99547.47;4349353;32;33688;-60
2023/06/29 06:49:46;;;;;;;9.65;2.17;;;;;;;22.64;44.40;99554.25;4352942;32;33714;-60
2023/06/29 06:52:14;;;;;;;4.25;2.37;;;;;;;22.50;45.43;99545.94;4353091;32;33763;-59
2023/06/29 06:54:41;;;;;;;7.43;1.90;;;;;;;22.24;45.95;99545.69;4351399;32;33908;-60
2023/06/29 06:57:09;;;;;;;4.18;2.28;;;;;;;22.28;45.62;99556.03;4352069;32;33413;-60
2023/06/29 06:59:36;;;;;;;9.90;2.10;;;;;;;22.67;46.03;99551.13;4346949;32;33631;-60
2023/06/29 07:02:05;;;;;;;3.83;2.03;;;;;;;22.89;45.38;99562.81;4350243;32;33987;-60
2023/06/29 07:04:33;;;;;;;2.85;1.70;;;;;;;23.13;45.29;99558.81;4369599;32;33742;-60
2023/06/29 07:07:00;;;;;;;3.90;2.15;;;;;;;22.51;45.29;99555.81;4367599;32;33146;-60
2023/06/29 07:09:28;;;;;;;3.90;1.80;;;;;;;22.61;46.19;99558.19;4370276;32;34471;-60
2023/06/29 07:11:57;;;;;;;5.32;1.92;;;;;;;22.58;46.45;99561.31;4362897;32;34836;-60
2023/06/29 07:14:25;;;;;;;6.62;1.95;;;;;;;22.53;46.18;99570.06;4361659;32;33863;-60
2023/06/29 07:16:53;;;;;;;6.30;2.37;;;;;;;21.99;47.11;99567.84;4361114;32;33363;-59
2023/06/29 07:19:20;;;;;;;3.22;2.05;;;;;;;21.91;47.54;99559.78;4361272;32;32666;-60
2023/06/29 07:21:51;;;;;;;4.22;1.90;;;;;;;21.85;47.99;99569.56;4358325;32;35099;-59
2023/06/29 07:24:21;;;;;;;4.87;1.98;;;;;;;22.66;46.35;99568.50;4367040;32;33786;-60
2023/06/29 07:26:49;;;;;;;3.95;2.10;;;;;;;22.25;47.13;99572.78;4356799;32;33147;-59
2023/06/29 07:29:17;;;;;;;7.20;2.08;;;;;;;22.76;46.16;99569.00;4362702;32;36414;-60
2023/06/29 07:31:45;;;;;;;3.92;1.92;;;;;;;22.87;45.49;99568.47;4360962;32;33905;-60
2023/06/29 07:34:12;;;;;;;3.25;1.58;;;;;;;23.23;44.73;99562.03;4365184;32;34304;-59
2023/06/29 07:36:40;;;;;;;5.37;2.35;;;;;;;23.37;45.08;99568.38;4360471;32;33447;-59
2023/06/29 07:39:07;;;;;;;5.68;1.90;;;;;;;23.28;45.15;99578.66;4361722;32;33679;-59
2023/06/29 07:41:35;;;;;;;6.47;2.62;;;;;;;22.99;44.95;99577.84;4357936;32;34006;-60
2023/06/29 07:44:03;;;;;;;6.78;2.17;;;;;;;23.35;44.80;99574.06;4356495;32;33938;-60
2023/06/29 07:46:31;;;;;;;5.05;2.00;;;;;;;23.63;44.58;99571.28;4333224;32;33292;-60
2023/06/29 07:48:59;;;;;;;4.97;2.20;;;;;;;23.23;44.89;99572.94;4335888;32;34362;-60
2023/06/29 07:51:32;;;;;;;8.40;1.95;;;;;;;23.74;43.89;99563.56;4335674;32;32290;-60
2023/06/29 07:54:04;;;;;;;7.30;2.33;;;;;;;23.48;43.91;99571.41;4335247;32;33638;-60
2023/06/29 07:56:32;;;;;;;4.20;1.90;;;;;;;23.74;43.89;99569.03;4338783;32;33314;-60
2023/06/29 07:59:02;;;;;;;8.93;2.00;;;;;;;23.24;44.61;99570.03;4333761;32;33471;-60
2023/06/29 08:01:34;;;;;;;3.65;1.73;;;;;;;23.72;44.09;99566.47;4337674;32;34707;-60
2023/06/29 08:04:03;;;;;;;3.55;1.48;;;;;;;24.05;43.21;99573.97;4352245;32;33742;-60
2023/06/29 08:06:31;;;;;;;7.82;1.60;;;;;;;24.17;43.08;99575.03;4350560;32;33174;-60
2023/06/29 08:09:03;;;;;;;5.90;1.87;;;;;;;24.43;42.82;99573.44;4352755;32;32995;-59
2023/06/29 08:11:30;;;;;;;3.05;1.60;;;;;;;23.67;43.60;99564.34;4349927;32;32430;-60
2023/06/29 08:13:58;;;;;;;5.55;2.25;;;;;;;23.63;43.88;99568.53;4350217;32;34076;-60
2023/06/29 08:16:26;;;;;;;3.47;1.77;;;;;;;24.06;42.86;99572.91;4364915;32;32118;-60
2023/06/29 08:18:53;;;;;;;7.25;1.90;;;;;;;23.85;43.85;99569.28;4370730;32;33477;-60
2023/06/29 08:21:21;;;;;;;3.28;1.73;;;;;;;23.65;43.63;99579.25;4371699;32;33918;-60
2023/06/29 08:23:50;;;;;;;7.28;1.98;;;;;;;23.99;43.55;99578.38;4367194;32;33748;-60
2023/06/29 08:26:18;;;;;;;7.57;1.85;;;;;;;24.28;43.61;99576.34;4367541;32;33520;-60
2023/06/29 08:28:45;;;;;;;11.73;1.87;;;;;;;24.49;43.14;99572.59;4369722;32;34436;-60
2023/06/29 08:31:14;;;;;;;2.78;1.77;;;;;;;24.22;43.64;99577.16;4364847;32;35497;-60
2023/06/29 08:33:42;;;;;;;5.12;1.95;;;;;;;24.08;43.27;99579.88;4367674;32;34015;-60
2023/06/29 08:36:10;;;;;;;11.25;2.00;;;;;;;24.02;43.46;99579.84;4368088;32;33348;-60
2023/06/29 08:38:38;;;;;;;4.35;2.00;;;;;;;24.01;43.40;99575.41;4367516;32;33475;-60
2023/06/29 08:41:05;;;;;;;5.12;1.73;;;;;;;24.36;42.81;99582.44;4365929;32;33710;-60
2023/06/29 08:43:33;;;;;;;4.65;1.70;;;;;;;25.03;41.37;99568.78;4372823;32;34979;-60
2023/06/29 08:46:02;;;;;;;5.30;2.22;;;;;;;24.85;41.98;99570.28;4372867;32;34499;-60
2023/06/29 08:48:31;;;;;;;8.68;1.83;;;;;;;24.47;43.40;99567.34;4373428;32;34739;-60
2023/06/29 08:51:02;;;;;;;3.83;1.98;;;;;;;25.25;41.49;99562.03;4365294;32;34181;-60
2023/06/29 08:53:30;;;;;;;3.35;1.73;;;;;;;24.43;42.81;99557.00;4340247;32;33972;-60
2023/06/29 08:55:58;;;;;;;3.83;2.17;;;;;;;24.76;42.39;99562.50;4349267;32;35027;-59
2023/06/29 08:58:26;;;;;;;4.12;2.00;;;;;;;24.93;41.94;99565.66;4317607;32;33432;-59
2023/06/29 09:00:55;;;;;;;4.72;1.87;;;;;;;24.75;43.65;99567.16;4311576;33;32716;-60
2023/06/29 09:03:23;;;;;;;3.70;1.30;;;;;;;25.04;42.28;99554.03;4320787;32;34164;-60
2023/06/29 09:05:50;;;;;;;3.37;1.98;;;;;;;24.99;41.89;99562.06;4320995;32;34626;-60
2023/06/29 09:08:19;;;;;;;6.75;2.78;;;;;;;24.91;43.24;99567.75;4322395;32;34677;-60
2023/06/29 09:10:47;;;;;;;7.60;2.80;;;;;;;24.87;42.56;99570.91;4318074;32;35026;-60
2023/06/29 09:13:14;;;;;;;4.90;1.58;;;;;;;25.18;41.07;99569.44;4318765;32;33600;-58
2023/06/29 09:15:43;;;;;;;3.35;1.95;;;;;;;25.10;41.03;99569.59;4317127;32;32863;-59
2023/06/29 09:18:11;;;;;;;4.75;1.85;;;;;;;25.27;41.17;99572.78;4328669;32;33413;-60
2023/06/29 09:20:40;;;;;;;4.05;1.92;;;;;;;25.40;40.41;99572.75;4319066;32;34065;-60
2023/06/29 09:23:08;;;;;;;2.55;1.48;;;;;;;25.35;40.84;99564.31;4320049;32;33742;-62
2023/06/29 09:25:38;;;;;;;4.05;1.65;;;;;;;25.20;41.84;99563.72;4318818;32;33236;-60
2023/06/29 09:28:07;;;;;;;8.43;2.50;;;;;;;25.52;40.82;99559.19;4318853;32;33904;-61
2023/06/29 09:30:37;;;;;;;4.53;2.05;;;;;;;25.59;41.51;99553.72;4346224;32;34994;-60
2023/06/29 09:33:07;;;;;;;4.90;2.10;;;;;;;25.87;40.86;99554.22;4348084;32;35033;-60
2023/06/29 09:35:40;;;;;;;6.35;2.53;;;;;;;26.12;41.36;99551.56;4349247;32;34864;-60
2023/06/29 09:38:08;;;;;;;3.15;1.73;;;;;;;26.27;40.60;99551.28;4352121;32;33544;-61
2023/06/29 09:40:54;;;;;;;12.55;1.90;;;;;;;25.89;39.95;99554.88;4351209;32;34522;-60
2023/06/29 09:43:26;;;;;;;10.18;2.67;;;;;;;25.70;40.51;99553.03;4354401;32;35271;-61
2023/06/29 09:46:08;;;;;;;3.22;1.98;;;;;;;25.95;39.96;99548.50;4352652;32;33332;-60
2023/06/29 09:48:50;;;;;;;5.15;2.15;;;;;;;26.16;39.70;99551.97;4350533;32;32180;-60
2023/06/29 09:51:22;;;;;;;3.67;1.90;;;;;;;27.05;38.75;99550.84;4351425;32;33735;-60
2023/06/29 09:53:50;;;;;;;2.60;1.60;;;;;;;26.81;38.53;99555.31;4350661;32;33924;-60
2023/06/29 09:56:18;;;;;;;5.65;2.15;;;;;;;26.94;38.75;99549.69;4351347;32;32918;-60
2023/06/29 09:58:46;;;;;;;4.25;2.00;;;;;;;27.12;37.56;99546.09;4337132;32;33719;-60
2023/06/29 10:01:15;;;;;;;4.55;1.77;;;;;;;27.35;36.65;99540.00;4350920;32;33927;-60
2023/06/29 10:03:44;;;;;;;3.85;2.03;;;;;;;28.00;35.72;99547.66;4351640;32;33703;-60
2023/06/29 10:06:19;;;;;;;4.35;1.75;;;;;;;27.96;36.69;99548.34;4349547;32;34160;-60
2023/06/29 10:08:53;;;;;;;3.17;1.50;;;;;;;27.81;35.66;99551.50;4342599;32;33549;-60
2023/06/29 10:11:21;;;;;;;7.67;2.10;;;;;;;28.12;34.59;99544.09;4337648;32;33559;-60
2023/06/29 10:13:50;;;;;;;5.00;1.90;;;;;;;28.46;34.68;99548.88;4348505;32;33868;-60
2023/06/29 10:16:21;;;;;;;2.80;1.65;;;;;;;27.58;35.20;99549.47;4352744;32;32412;-60
2023/06/29 10:18:50;;;;;;;4.82;1.87;;;;;;;27.37;35.67;99537.00;4339876;32;34896;-60
2023/06/29 10:21:19;;;;;;;4.97;2.30;;;;;;;27.79;35.25;99540.72;4350942;32;33959;-60
2023/06/29 10:23:47;;;;;;;3.00;1.52;;;;;;;28.16;35.16;99542.56;4306137;33;33845;-60
2023/06/29 10:26:15;;;;;;;3.33;1.90;;;;;;;28.14;35.02;99541.94;4295086;33;33688;-60
2023/06/29 10:28:43;;;;;;;4.95;1.95;;;;;;;28.37;35.40;99547.50;4305379;33;32423;-60
2023/06/29 10:31:11;;;;;;;4.50;1.65;;;;;;;28.39;34.72;99539.88;4302383;33;35495;-60
2023/06/29 10:33:46;;;;;;;6.43;2.22;;;;;;;28.51;34.58;99545.44;4293517;33;36010;-60
2023/06/29 10:36:16;;;;;;;3.97;1.70;;;;;;;28.51;34.40;99534.44;4305408;33;34353;-59
2023/06/29 10:38:44;;;;;;;3.03;1.73;;;;;;;28.38;34.80;99538.19;4309204;33;32653;-60
2023/06/29 10:41:27;;;;;;;3.53;1.60;;;;;;;27.90;35.67;99530.88;4306095;33;34494;-60
2023/06/29 10:44:00;;;;;;;4.40;2.10;;;;;;;28.34;35.32;99529.56;4307737;33;33393;-60
2023/06/29 10:47:01;;;;;;;5.87;2.45;;;;;;;28.39;35.10;99539.03;4308754;33;33912;-60
2023/06/29 10:49:29;;;;;;;2.30;1.30;;;;;;;28.47;34.13;99531.28;4247293;33;33329;-60
2023/06/29 10:52:04;;;;;;;3.17;1.77;;;;;;;28.19;33.82;99531.09;4246899;33;32721;-60
2023/06/29 10:54:32;;;;;;;5.30;1.90;;;;;;;28.86;33.66;99528.97;4260581;33;33834;-60
2023/06/29 10:57:01;;;;;;;3.87;2.17;;;;;;;28.65;33.31;99526.78;4291268;33;33274;-60
2023/06/29 10:59:31;;;;;;;6.30;2.33;;;;;;;29.29;33.05;99535.19;4289945;33;32951;-59
2023/06/29 11:01:59;;;;;;;3.70;1.67;;;;;;;29.05;33.75;99528.84;4290453;33;34896;-60
2023/06/29 11:04:27;;;;;;;5.82;1.77;;;;;;;29.11;33.23;99531.47;4291908;33;35823;-60
2023/06/29 11:06:55;;;;;;;5.47;2.20;;;;;;;28.78;33.91;99518.28;4292493;33;33990;-60
2023/06/29 11:09:23;;;;;;;3.85;1.98;;;;;;;28.41;33.85;99534.16;4290532;33;33517;-60
2023/06/29 11:11:52;;;;;;;4.47;1.87;;;;;;;28.60;33.58;99523.88;4291598;33;34467;-60
2023/06/29 11:14:19;;;;;;;6.10;2.28;;;;;;;29.02;31.99;99520.00;4293786;33;34649;-60
2023/06/29 11:16:52;;;;;;;4.72;2.20;;;;;;;28.80;32.76;99521.66;4292297;33;33081;-60
2023/06/29 11:19:25;;;;;;;4.30;1.90;;;;;;;27.97;34.70;99526.13;4298485;33;33343;-59
2023/06/29 11:21:54;;;;;;;4.53;2.20;;;;;;;28.29;34.22;99520.34;4289680;33;33453;-60
2023/06/29 11:24:22;;;;;;;3.87;1.98;;;;;;;28.35;34.80;99522.16;4299405;32;33373;-60
2023/06/29 11:26:49;;;;;;;5.00;2.45;;;;;;;28.32;34.84;99525.38;4351059;32;31815;-59
2023/06/29 11:29:17;;;;;;;3.87;1.62;;;;;;;28.63;34.06;99526.16;4352276;32;33645;-59
2023/06/29 11:31:45;;;;;;;3.90;1.92;;;;;;;28.66;34.13;99515.50;4349053;32;35030;-59
2023/06/29 11:34:13;;;;;;;5.12;2.15;;;;;;;28.17;35.30;99527.72;4349888;32;33903;-59
2023/06/29 11:36:41;;;;;;;3.42;2.03;;;;;;;27.93;35.88;99522.16;4350222;32;35818;-59
2023/06/29 11:39:19;;;;;;;4.28;2.10;;;;;;;28.09;35.45;99516.00;4352030;32;35068;-59
2023/06/29 11:41:47;;;;;;;4.78;1.87;;;;;;;28.17;36.04;99512.06;4352505;32;33049;-60